createdAt,value
2022-10-10T00:01:36.214Z,98645.22
2022-10-10T00:04:05.686Z,98640.81
2022-10-10T00:06:33.787Z,98637.13
2022-10-10T00:09:03.572Z,98636.91
2022-10-10T00:11:31.324Z,98648.75
2022-10-10T00:13:59.289Z,98642.38
2022-10-10T00:16:26.810Z,98649.44
2022-10-10T00:18:55.636Z,98638.69
2022-10-10T00:21:22.894Z,98649.03
2022-10-10T00:23:50.178Z,98642.03
2022-10-10T00:26:19.407Z,98635.16
2022-10-10T00:28:48.097Z,98629.56
2022-10-10T00:31:15.700Z,98644.81
2022-10-10T00:33:43.166Z,98634.34
2022-10-10T00:36:11.414Z,98638.22
2022-10-10T00:38:38.714Z,98632.78
2022-10-10T00:41:06.481Z,98631.63
2022-10-10T00:43:34.924Z,98626.06
2022-10-10T00:46:02.487Z,98635.13
2022-10-10T00:48:45.102Z,98629.22
2022-10-10T00:51:18.606Z,98628.53
2022-10-10T00:54:02.117Z,98634.81
2022-10-10T00:56:52.531Z,98630.06
2022-10-10T00:59:21.916Z,98619.22
2022-10-10T01:01:49.235Z,98631.69
2022-10-10T01:04:45.467Z,98633.28
2022-10-10T01:07:28.107Z,98629.56
2022-10-10T01:10:10.489Z,98637.25
2022-10-10T01:13:16.129Z,98639.91
2022-10-10T01:16:07.394Z,98627.13
2022-10-10T01:19:30.793Z,98626.88
2022-10-10T01:22:50.586Z,98630.78
2022-10-10T01:26:09.958Z,98630.53
2022-10-10T01:29:01.705Z,98630.06
2022-10-10T01:31:32.613Z,98637.38
2022-10-10T01:34:40.064Z,98632.59
2022-10-10T01:37:29.135Z,98634.53
2022-10-10T01:40:52.017Z,98629.88
2022-10-10T01:43:19.893Z,98633.00
2022-10-10T01:45:53.073Z,98627.47
2022-10-10T01:48:31.502Z,98628.44
2022-10-10T01:52:17.009Z,98632.69
2022-10-10T01:55:52.215Z,98639.19
2022-10-10T01:59:10.492Z,98628.63
2022-10-10T02:02:12.966Z,98618.78
2022-10-10T02:05:27.994Z,98616.44
2022-10-10T02:08:36.261Z,98613.81
2022-10-10T02:11:12.015Z,98629.53
2022-10-10T02:13:58.249Z,98621.97
2022-10-10T02:16:35.324Z,98625.78
2022-10-10T02:19:08.511Z,98619.78
2022-10-10T02:21:37.354Z,98613.13
2022-10-10T02:24:10.220Z,98615.66
2022-10-10T02:26:39.351Z,98608.44
2022-10-10T02:29:19.640Z,98610.16
2022-10-10T02:32:14.329Z,98620.41
2022-10-10T02:34:51.449Z,98611.22
2022-10-10T02:37:22.557Z,98611.53
2022-10-10T02:39:59.544Z,98615.69
2022-10-10T02:42:27.803Z,98621.69
2022-10-10T02:44:56.900Z,98616.38
2022-10-10T02:47:24.505Z,98607.38
2022-10-10T02:49:52.067Z,98609.34
2022-10-10T02:52:19.513Z,98606.25
2022-10-10T02:54:46.889Z,98603.22
2022-10-10T02:57:14.385Z,98614.75
2022-10-10T02:59:41.889Z,98610.06
2022-10-10T03:02:09.212Z,98622.41
2022-10-10T03:04:37.072Z,98617.88
2022-10-10T03:07:05.411Z,98617.56
2022-10-10T03:09:33.501Z,98616.28
2022-10-10T03:12:00.776Z,98613.97
2022-10-10T03:14:28.192Z,98611.56
2022-10-10T03:16:55.566Z,98617.94
2022-10-10T03:19:23.757Z,98610.94
2022-10-10T03:21:51.036Z,98602.03
2022-10-10T03:24:18.297Z,98609.19
2022-10-10T03:26:45.602Z,98609.22
2022-10-10T03:29:12.852Z,98604.50
2022-10-10T03:31:40.129Z,98603.50
2022-10-10T03:34:07.404Z,98608.06
2022-10-10T03:36:34.732Z,98607.28
2022-10-10T03:39:02.335Z,98607.50
2022-10-10T03:41:29.665Z,98617.63
2022-10-10T03:43:57.611Z,98618.06
2022-10-10T03:46:24.889Z,98607.28
2022-10-10T03:48:52.224Z,98613.59
2022-10-10T03:51:19.651Z,98607.50
2022-10-10T03:53:46.941Z,98616.03
2022-10-10T03:56:15.010Z,98606.38
2022-10-10T03:58:42.317Z,98615.19
2022-10-10T04:01:09.676Z,98621.22
2022-10-10T04:03:37.126Z,98624.25
2022-10-10T04:06:04.604Z,98623.50
2022-10-10T04:08:32.496Z,98615.44
2022-10-10T04:10:59.768Z,98630.31
2022-10-10T04:13:27.578Z,98622.66
2022-10-10T04:15:57.100Z,98621.00
2022-10-10T04:18:25.374Z,98629.00
2022-10-10T04:20:52.661Z,98625.03
2022-10-10T04:23:20.236Z,98630.31
2022-10-10T04:25:51.603Z,98631.19
2022-10-10T04:28:19.530Z,98627.09
2022-10-10T04:30:47.213Z,98626.78
2022-10-10T04:33:14.508Z,98635.88
2022-10-10T04:35:41.826Z,98627.47
2022-10-10T04:38:09.097Z,98636.69
2022-10-10T04:40:38.024Z,98636.31
2022-10-10T04:43:05.288Z,98630.63
2022-10-10T04:45:37.217Z,98634.69
2022-10-10T04:48:06.265Z,98636.19
2022-10-10T04:50:33.623Z,98635.56
2022-10-10T04:53:00.921Z,98637.22
2022-10-10T04:55:28.262Z,98645.06
2022-10-10T04:57:55.552Z,98640.75
2022-10-10T05:00:22.853Z,98638.81
2022-10-10T05:02:50.548Z,98637.19
2022-10-10T05:05:18.063Z,98636.06
2022-10-10T05:07:45.329Z,98633.25
2022-10-10T05:10:13.398Z,98635.97
2022-10-10T05:12:40.774Z,98631.63
2022-10-10T05:15:08.838Z,98634.41
2022-10-10T05:17:36.116Z,98628.84
2022-10-10T05:20:04.199Z,98631.69
2022-10-10T05:22:31.622Z,98637.97
2022-10-10T05:24:59.898Z,98639.91
2022-10-10T05:27:27.933Z,98634.72
2022-10-10T05:29:55.828Z,98642.13
2022-10-10T05:32:23.978Z,98642.03
2022-10-10T05:34:51.265Z,98652.94
2022-10-10T05:37:18.525Z,98652.78
2022-10-10T05:39:45.800Z,98641.84
2022-10-10T05:42:14.124Z,98635.84
2022-10-10T05:44:41.502Z,98644.16
2022-10-10T05:47:09.049Z,98651.66
2022-10-10T05:49:36.501Z,98650.03
2022-10-10T05:52:04.145Z,98651.31
2022-10-10T05:54:33.027Z,98643.41
2022-10-10T05:57:00.348Z,98649.72
2022-10-10T05:59:30.069Z,98651.34
2022-10-10T06:01:57.725Z,98658.94
2022-10-10T06:04:25.155Z,98664.78
2022-10-10T06:06:52.420Z,98661.25
2022-10-10T06:09:19.689Z,98665.59
2022-10-10T06:11:46.992Z,98659.38
2022-10-10T06:14:14.277Z,98665.47
2022-10-10T06:16:43.549Z,98665.94
2022-10-10T06:19:14.806Z,98665.13
2022-10-10T06:21:42.471Z,98663.59
2022-10-10T06:24:11.674Z,98666.44
2022-10-10T06:26:38.940Z,98666.69
2022-10-10T06:29:07.341Z,98680.66
2022-10-10T06:31:39.350Z,98682.16
2022-10-10T06:34:07.557Z,98680.31
2022-10-10T06:36:35.262Z,98685.47
2022-10-10T06:39:02.651Z,98690.19
2022-10-10T06:41:30.028Z,98693.16
2022-10-10T06:43:58.611Z,98689.34
2022-10-10T06:46:26.124Z,98683.72
2022-10-10T06:48:53.433Z,98693.06
2022-10-10T06:51:20.745Z,98703.66
2022-10-10T06:53:48.072Z,98693.66
2022-10-10T06:56:26.371Z,98701.94
2022-10-10T06:58:55.771Z,98703.41
2022-10-10T07:01:25.843Z,98717.78
2022-10-10T07:03:53.617Z,98716.69
2022-10-10T07:06:21.205Z,98725.84
2022-10-10T07:08:48.578Z,98728.97
2022-10-10T07:11:15.946Z,98734.91
2022-10-10T07:13:44.129Z,98736.16
2022-10-10T07:16:11.630Z,98730.69
2022-10-10T07:18:39.063Z,98726.75
2022-10-10T07:21:07.395Z,98733.75
2022-10-10T07:23:36.492Z,98735.50
2022-10-10T07:26:15.523Z,98736.19
2022-10-10T07:28:43.029Z,98747.13
2022-10-10T07:31:11.725Z,98741.88
2022-10-10T07:33:50.109Z,98744.88
2022-10-10T07:36:18.744Z,98746.69
2022-10-10T07:38:49.828Z,98751.28
2022-10-10T07:41:17.512Z,98746.94
2022-10-10T07:43:44.808Z,98749.84
2022-10-10T07:46:20.325Z,98746.84
2022-10-10T07:48:49.246Z,98752.72
2022-10-10T07:51:17.530Z,98750.44
2022-10-10T07:53:44.801Z,98758.59
2022-10-10T07:56:12.230Z,98763.69
2022-10-10T07:58:39.618Z,98763.97
2022-10-10T08:01:11.995Z,98758.13
2022-10-10T08:03:40.685Z,98761.41
2022-10-10T08:06:15.234Z,98762.97
2022-10-10T08:08:50.795Z,98757.84
2022-10-10T08:11:22.017Z,98766.31
2022-10-10T08:13:50.242Z,98767.97
2022-10-10T08:16:18.198Z,98757.69
2022-10-10T08:18:45.583Z,98758.09
2022-10-10T08:21:15.538Z,98761.31
2022-10-10T08:23:43.185Z,98759.19
2022-10-10T08:26:16.084Z,98759.38
2022-10-10T08:28:44.336Z,98767.81
2022-10-10T08:31:17.683Z,98774.63
2022-10-10T08:33:47.513Z,98762.38
2022-10-10T08:36:23.330Z,98768.75
2022-10-10T08:38:53.414Z,98766.78
2022-10-10T08:41:55.600Z,98764.13
2022-10-10T08:45:04.482Z,98760.22
2022-10-10T08:47:54.047Z,98761.78
2022-10-10T08:50:51.697Z,98768.25
2022-10-10T08:53:47.688Z,98768.28
2022-10-10T08:56:25.896Z,98771.47
2022-10-10T08:59:04.893Z,98767.50
2022-10-10T09:02:17.820Z,98764.31
2022-10-10T09:04:26.121Z,98765.09
2022-10-10T09:07:45.435Z,98766.69
2022-10-10T09:10:52.385Z,98772.28
2022-10-10T09:13:35.941Z,98772.28
2022-10-10T09:16:30.440Z,98770.22
2022-10-10T09:19:40.884Z,98772.09
2022-10-10T09:22:27.645Z,98782.81
2022-10-10T09:25:19.248Z,98777.16
2022-10-10T09:28:16.740Z,98775.78
2022-10-10T09:30:57.207Z,98778.91
2022-10-10T09:34:22.105Z,98774.75
2022-10-10T09:36:49.997Z,98790.84
2022-10-10T09:40:20.415Z,98789.13
2022-10-10T09:42:47.808Z,98789.22
2022-10-10T09:45:39.154Z,98794.38
2022-10-10T09:48:10.863Z,98797.56
2022-10-10T09:50:43.137Z,98793.81
2022-10-10T09:53:17.729Z,98799.06
2022-10-10T09:55:47.938Z,98799.78
2022-10-10T09:58:50.720Z,98785.06
2022-10-10T10:01:32.424Z,98800.78
2022-10-10T10:04:28.804Z,98795.81
2022-10-10T10:07:34.077Z,98793.81
2022-10-10T10:10:20.647Z,98786.34
2022-10-10T10:12:48.389Z,98780.75
2022-10-10T10:15:32.163Z,98775.41
2022-10-10T10:18:17.169Z,98785.38
2022-10-10T10:21:02.212Z,98789.44
2022-10-10T10:24:29.498Z,98780.75
2022-10-10T10:26:57.377Z,98780.78
2022-10-10T10:29:34.284Z,98789.69
2022-10-10T10:33:00.947Z,98781.22
2022-10-10T10:35:51.548Z,98784.66
2022-10-10T10:38:48.449Z,98789.22
2022-10-10T10:42:35.456Z,98780.59
2022-10-10T10:45:39.994Z,98784.09
2022-10-10T10:48:29.612Z,98781.13
2022-10-10T10:52:01.473Z,98774.00
2022-10-10T10:55:17.491Z,98777.75
2022-10-10T11:02:07.605Z,98773.84
2022-10-10T11:05:31.021Z,98773.25
2022-10-10T11:09:03.392Z,98772.78
2022-10-10T11:12:06.824Z,98777.03
2022-10-10T11:15:14.561Z,98761.25
2022-10-10T11:18:01.617Z,98763.00
2022-10-10T11:20:46.396Z,98762.06
2022-10-10T11:23:43.017Z,98752.66
2022-10-10T11:26:46.316Z,98754.94
2022-10-10T11:29:34.301Z,98760.34
2022-10-10T11:32:43.777Z,98758.41
2022-10-10T11:35:46.600Z,98750.53
2022-10-10T11:38:57.477Z,98757.81
2022-10-10T11:41:54.796Z,98751.19
2022-10-10T11:44:47.901Z,98746.09
2022-10-10T11:47:42.357Z,98741.03
2022-10-10T11:50:26.193Z,98735.81
2022-10-10T11:53:38.083Z,98725.75
2022-10-10T11:56:13.498Z,98730.41
2022-10-10T11:58:58.669Z,98725.81
2022-10-10T12:01:45.250Z,98727.16
2022-10-10T12:04:12.656Z,98714.94
2022-10-10T12:07:11.585Z,98716.81
2022-10-10T12:09:49.688Z,98717.56
2022-10-10T12:12:44.556Z,98721.78
2022-10-10T12:15:41.972Z,98713.09
2022-10-10T12:18:58.914Z,98715.16
2022-10-10T12:21:29.259Z,98708.44
2022-10-10T12:24:14.233Z,98703.28
2022-10-10T12:26:56.027Z,98700.34
2022-10-10T12:29:56.559Z,98704.44
2022-10-10T12:32:39.952Z,98697.19
2022-10-10T12:35:31.704Z,98702.63
2022-10-10T12:38:27.782Z,98700.34
2022-10-10T12:40:59.581Z,98692.19
2022-10-10T12:44:11.202Z,98692.03
2022-10-10T12:46:38.586Z,98694.53
2022-10-10T12:49:23.985Z,98692.13
2022-10-10T12:52:20.333Z,98681.16
2022-10-10T12:54:49.382Z,98682.44
2022-10-10T12:57:44.069Z,98681.50
2022-10-10T13:00:24.442Z,98674.69
2022-10-10T13:03:04.298Z,98681.50
2022-10-10T13:05:40.191Z,98673.97
2022-10-10T13:08:25.024Z,98676.91
2022-10-10T13:11:12.624Z,98681.31
2022-10-10T13:13:57.084Z,98676.66
2022-10-10T13:16:33.761Z,98673.19
2022-10-10T13:19:01.776Z,98674.28
2022-10-10T13:21:34.980Z,98670.47
2022-10-10T13:24:07.007Z,98671.75
2022-10-10T13:26:50.309Z,98671.94
2022-10-10T13:29:36.160Z,98672.44
2022-10-10T13:32:26.989Z,98656.28
2022-10-10T13:35:04.080Z,98661.66
2022-10-10T13:37:32.335Z,98658.22
2022-10-10T13:40:00.916Z,98658.47
2022-10-10T13:42:40.496Z,98655.72
2022-10-10T13:45:45.696Z,98658.09
2022-10-10T13:48:50.785Z,98658.88
2022-10-10T13:51:18.141Z,98655.66
2022-10-10T13:53:54.422Z,98660.44
2022-10-10T13:56:41.540Z,98664.81
2022-10-10T13:59:13.242Z,98663.41
2022-10-10T14:01:54.739Z,98657.97
2022-10-10T14:04:59.574Z,98657.25
2022-10-10T14:07:29.760Z,98654.13
2022-10-10T14:10:10.057Z,98656.00
2022-10-10T14:13:00.896Z,98662.75
2022-10-10T14:15:40.660Z,98662.22
2022-10-10T14:18:26.305Z,98665.19
2022-10-10T14:20:53.926Z,98661.25
2022-10-10T14:23:21.876Z,98669.66
2022-10-10T14:25:50.081Z,98672.13
2022-10-10T14:28:27.504Z,98668.47
2022-10-10T14:30:55.573Z,98667.53
2022-10-10T14:33:23.778Z,98667.81
2022-10-10T14:35:54.553Z,98663.66
2022-10-10T14:38:22.046Z,98666.84
2022-10-10T14:40:51.141Z,98666.50
2022-10-10T14:43:23.552Z,98671.00
2022-10-10T14:45:53.492Z,98670.88
2022-10-10T14:48:21.596Z,98669.84
2022-10-10T14:50:51.161Z,98675.31
2022-10-10T14:53:19.444Z,98673.50
2022-10-10T14:55:46.902Z,98676.03
2022-10-10T14:58:22.671Z,98676.38
2022-10-10T15:00:52.887Z,98688.31
2022-10-10T15:03:20.586Z,98690.53
2022-10-10T15:05:49.986Z,98686.78
2022-10-10T15:08:19.514Z,98688.31
2022-10-10T15:10:48.097Z,98683.59
2022-10-10T15:13:17.609Z,98684.50
2022-10-10T15:15:47.075Z,98681.00
2022-10-10T15:18:40.946Z,98688.78
2022-10-10T15:21:11.355Z,98700.47
2022-10-10T15:23:39.530Z,98690.44
2022-10-10T15:26:07.675Z,98697.13
2022-10-10T15:28:35.215Z,98690.47
2022-10-10T15:31:03.193Z,98689.78
2022-10-10T15:33:30.761Z,98697.59
2022-10-10T15:36:09.644Z,98698.13
2022-10-10T15:38:38.850Z,98704.69
2022-10-10T15:41:10.048Z,98700.72
2022-10-10T15:43:54.535Z,98690.66
2022-10-10T15:46:26.595Z,98697.78
2022-10-10T15:49:02.110Z,98710.22
2022-10-10T15:51:31.260Z,98701.28
2022-10-10T15:54:00.433Z,98703.63
2022-10-10T15:56:30.543Z,98712.84
2022-10-10T15:59:02.381Z,98711.94
2022-10-10T16:01:31.392Z,98700.16
2022-10-10T16:03:59.060Z,98712.06
2022-10-10T16:06:26.847Z,98709.41
2022-10-10T16:09:09.984Z,98708.41
2022-10-10T16:11:42.213Z,98718.53
2022-10-10T16:14:10.892Z,98722.25
2022-10-10T16:16:38.545Z,98722.13
2022-10-10T16:19:06.334Z,98716.03
2022-10-10T16:21:33.792Z,98722.56
2022-10-10T16:24:01.488Z,98715.72
2022-10-10T16:26:33.081Z,98727.41
2022-10-10T16:29:02.297Z,98722.56
2022-10-10T16:31:29.885Z,98729.84
2022-10-10T16:34:00.299Z,98734.81
2022-10-10T16:36:33.560Z,98740.38
2022-10-10T16:39:00.987Z,98735.22
2022-10-10T16:41:48.744Z,98734.72
2022-10-10T16:44:17.935Z,98739.44
2022-10-10T16:46:45.496Z,98745.66
2022-10-10T16:49:16.675Z,98750.38
2022-10-10T16:51:44.174Z,98752.69
2022-10-10T16:54:11.636Z,98758.47
2022-10-10T16:56:38.936Z,98749.31
2022-10-10T16:59:10.933Z,98754.44
2022-10-10T17:01:38.311Z,98750.22
2022-10-10T17:04:05.641Z,98756.19
2022-10-10T17:06:37.874Z,98754.28
2022-10-10T17:09:08.220Z,98767.25
2022-10-10T17:11:36.152Z,98760.47
2022-10-10T17:14:04.081Z,98770.91
2022-10-10T17:17:10.033Z,98765.00
2022-10-10T17:19:21.020Z,98770.66
2022-10-10T17:21:48.325Z,98768.38
2022-10-10T17:24:16.786Z,98766.09
2022-10-10T17:26:45.909Z,98781.44
2022-10-10T17:29:13.939Z,98786.06
2022-10-10T17:31:41.475Z,98781.84
2022-10-10T17:34:08.881Z,98790.03
2022-10-10T17:36:36.169Z,98798.31
2022-10-10T17:39:03.827Z,98792.19
2022-10-10T17:41:33.207Z,98807.66
2022-10-10T17:44:00.815Z,98808.16
2022-10-10T17:46:36.239Z,98810.94
2022-10-10T17:49:11.762Z,98817.00
2022-10-10T17:51:41.273Z,98817.81
2022-10-10T17:54:10.089Z,98828.38
2022-10-10T17:56:38.446Z,98821.13
2022-10-10T17:59:06.750Z,98824.78
2022-10-10T18:01:39.842Z,98836.34
2022-10-10T18:04:07.770Z,98823.72
2022-10-10T18:06:38.084Z,98844.94
2022-10-10T18:09:05.904Z,98842.72
2022-10-10T18:11:33.347Z,98843.22
2022-10-10T18:14:01.071Z,98847.53
2022-10-10T18:16:34.892Z,98840.84
2022-10-10T18:19:07.412Z,98848.00
2022-10-10T18:21:38.951Z,98848.97
2022-10-10T18:24:06.946Z,98852.44
2022-10-10T18:26:36.081Z,98863.09
2022-10-10T18:29:04.636Z,98855.50
2022-10-10T18:31:35.676Z,98861.25
2022-10-10T18:34:06.922Z,98861.84
2022-10-10T18:36:39.525Z,98859.03
2022-10-10T18:39:13.730Z,98859.84
2022-10-10T18:41:41.371Z,98866.44
2022-10-10T18:44:16.836Z,98872.69
2022-10-10T18:46:46.223Z,98879.34
2022-10-10T18:49:14.532Z,98878.53
2022-10-10T18:51:43.851Z,98870.31
2022-10-10T18:54:17.273Z,98875.19
2022-10-10T18:56:47.031Z,98885.72
2022-10-10T18:59:23.660Z,98880.06
2022-10-10T19:01:52.643Z,98884.22
2022-10-10T19:04:21.351Z,98886.38
2022-10-10T19:06:55.975Z,98891.63
2022-10-10T19:09:25.426Z,98889.28
2022-10-10T19:11:53.376Z,98883.28
2022-10-10T19:14:21.183Z,98892.72
2022-10-10T19:16:48.733Z,98886.19
2022-10-10T19:19:19.347Z,98897.38
2022-10-10T19:21:50.140Z,98900.38
2022-10-10T19:24:20.958Z,98899.06
2022-10-10T19:26:57.520Z,98892.56
2022-10-10T19:29:26.860Z,98897.41
2022-10-10T19:31:54.260Z,98903.72
2022-10-10T19:34:22.202Z,98906.78
2022-10-10T19:36:49.542Z,98909.28
2022-10-10T19:39:16.895Z,98905.97
2022-10-10T19:41:44.228Z,98912.66
2022-10-10T19:44:11.621Z,98921.28
2022-10-10T19:46:38.979Z,98925.28
2022-10-10T19:49:06.530Z,98923.84
2022-10-10T19:51:34.024Z,98936.28
2022-10-10T19:54:01.417Z,98937.69
2022-10-10T19:56:28.788Z,98936.13
2022-10-10T19:59:00.773Z,98938.28
2022-10-10T20:01:30.893Z,98943.44
2022-10-10T20:03:59.866Z,98949.69
2022-10-10T20:06:28.378Z,98946.13
2022-10-10T20:08:56.188Z,98946.59
2022-10-10T20:11:23.822Z,98948.94
2022-10-10T20:13:55.668Z,98961.19
2022-10-10T20:16:26.650Z,98953.03
2022-10-10T20:18:56.292Z,98955.66
2022-10-10T20:21:33.489Z,98963.63
2022-10-10T20:24:09.859Z,98970.91
2022-10-10T20:26:37.505Z,98965.31
2022-10-10T20:29:07.082Z,98977.31
2022-10-10T20:31:38.605Z,98970.72
2022-10-10T20:34:07.734Z,98977.38
2022-10-10T20:36:37.279Z,98995.22
2022-10-10T20:39:12.090Z,98997.81
2022-10-10T20:41:41.649Z,98993.22
2022-10-10T20:44:14.601Z,99002.38
2022-10-10T20:46:45.474Z,99003.47
2022-10-10T20:49:21.934Z,98996.31
2022-10-10T20:51:51.819Z,99006.63
2022-10-10T20:54:23.598Z,99010.97
2022-10-10T20:56:51.594Z,99003.97
2022-10-10T20:59:21.206Z,99009.16
2022-10-10T21:01:49.383Z,99012.84
2022-10-10T21:04:17.097Z,99015.72
2022-10-10T21:06:44.473Z,99018.47
2022-10-10T21:09:15.807Z,99002.59
2022-10-10T21:11:45.603Z,99006.94
2022-10-10T21:14:16.284Z,99011.38
2022-10-10T21:16:43.742Z,99009.81
2022-10-10T21:19:12.705Z,99010.16
2022-10-10T21:21:40.565Z,99009.84
2022-10-10T21:24:13.712Z,99013.41
2022-10-10T21:26:45.446Z,99005.41
2022-10-10T21:29:12.765Z,99009.41
2022-10-10T21:31:41.408Z,99011.06
2022-10-10T21:34:15.617Z,99003.03
2022-10-10T21:36:42.993Z,98997.91
2022-10-10T21:39:13.999Z,98993.91
2022-10-10T21:41:41.716Z,98997.50
2022-10-10T21:44:11.010Z,98993.50
2022-10-10T21:46:38.312Z,98995.03
2022-10-10T21:49:11.890Z,98995.13
2022-10-10T21:51:45.437Z,98993.88
2022-10-10T21:54:13.701Z,99001.44
2022-10-10T21:56:41.537Z,98991.09
2022-10-10T21:59:10.503Z,98994.19
2022-10-10T22:01:38.001Z,98999.81
2022-10-10T22:04:06.491Z,98997.09
2022-10-10T22:06:34.647Z,98999.47
2022-10-10T22:09:03.160Z,98997.44
2022-10-10T22:11:32.870Z,98995.13
2022-10-10T22:14:05.621Z,98996.63
2022-10-10T22:16:34.506Z,98987.06
2022-10-10T22:19:03.092Z,98992.25
2022-10-10T22:21:34.706Z,98991.91
2022-10-10T22:24:08.135Z,98993.50
2022-10-10T22:26:36.601Z,98981.91
2022-10-10T22:29:04.764Z,98983.88
2022-10-10T22:31:32.157Z,98995.06
2022-10-10T22:34:01.099Z,98981.50
2022-10-10T22:36:28.447Z,98989.47
2022-10-10T22:38:55.796Z,98987.91
2022-10-10T22:41:23.286Z,98991.88
2022-10-10T22:43:50.612Z,98990.72
2022-10-10T22:46:17.976Z,98987.09
2022-10-10T22:48:45.312Z,98978.78
2022-10-10T22:51:17.865Z,98977.16
2022-10-10T22:53:48.110Z,98985.19
2022-10-10T22:56:20.097Z,98985.59
2022-10-10T22:58:50.812Z,98993.56
2022-10-10T23:01:26.209Z,98993.97
2022-10-10T23:04:00.511Z,98988.81
2022-10-10T23:06:28.034Z,98995.19
2022-10-10T23:08:58.119Z,98995.19
2022-10-10T23:11:26.416Z,98997.19
2022-10-10T23:13:53.690Z,99003.97
2022-10-10T23:16:20.960Z,99004.75
2022-10-10T23:18:48.405Z,99002.75
2022-10-10T23:21:15.948Z,98999.16
2022-10-10T23:23:43.245Z,98993.56
2022-10-10T23:26:13.489Z,98998.75
2022-10-10T23:28:41.367Z,98999.53
2022-10-10T23:31:10.157Z,99000.72
2022-10-10T23:33:39.681Z,98995.94
2022-10-10T23:36:14.000Z,98996.38
2022-10-10T23:38:42.653Z,99011.13
2022-10-10T23:41:11.785Z,98992.81
2022-10-10T23:43:39.088Z,99005.16
2022-10-10T23:46:07.222Z,99008.34
2022-10-10T23:48:34.920Z,99001.19
2022-10-10T23:51:02.514Z,99009.53
2022-10-10T23:53:30.627Z,99004.34
2022-10-10T23:55:57.912Z,99014.31
2022-10-10T23:58:25.474Z,99008.34
